createdAt,value
2023-04-14T00:02:06.630Z,12.43
2023-04-14T00:04:39.134Z,12.43
2023-04-14T00:07:13.252Z,12.42
2023-04-14T00:09:45.927Z,12.41
2023-04-14T00:12:18.330Z,12.38
2023-04-14T00:14:52.041Z,12.37
2023-04-14T00:17:24.440Z,12.33
2023-04-14T00:19:56.710Z,12.29
2023-04-14T00:22:29.106Z,12.27
2023-04-14T00:25:01.418Z,12.25
2023-04-14T00:27:33.840Z,12.23
2023-04-14T00:30:07.508Z,12.22
2023-04-14T00:32:40.146Z,12.17
2023-04-14T00:35:12.843Z,12.15
2023-04-14T00:37:45.212Z,12.15
2023-04-14T00:40:17.535Z,12.13
2023-04-14T00:42:50.751Z,12.13
2023-04-14T00:45:25.452Z,12.14
2023-04-14T00:47:59.452Z,12.13
2023-04-14T00:50:31.865Z,12.11
2023-04-14T00:53:05.097Z,12.11
2023-04-14T00:55:37.821Z,12.10
2023-04-14T00:58:11.157Z,12.09
2023-04-14T01:00:43.745Z,12.09
2023-04-14T01:03:16.810Z,12.07
2023-04-14T01:05:49.257Z,12.06
2023-04-14T01:08:23.259Z,12.05
2023-04-14T01:11:08.781Z,12.04
2023-04-14T01:13:51.402Z,12.02
2023-04-14T01:16:30.036Z,12.02
2023-04-14T01:19:17.614Z,12.01
2023-04-14T01:21:55.649Z,11.98
2023-04-14T01:24:48.735Z,11.95
2023-04-14T01:27:33.844Z,11.91
2023-04-14T01:30:33.271Z,11.89
2023-04-14T01:33:09.265Z,11.87
2023-04-14T01:35:47.316Z,11.87
2023-04-14T01:38:26.606Z,11.86
2023-04-14T01:41:05.828Z,11.85
2023-04-14T01:43:42.399Z,11.86
2023-04-14T01:46:18.296Z,11.86
2023-04-14T01:48:51.754Z,11.84
2023-04-14T01:51:27.022Z,11.83
2023-04-14T01:54:01.735Z,11.83
2023-04-14T01:56:35.642Z,11.83
2023-04-14T01:59:09.921Z,11.83
2023-04-14T02:01:44.120Z,11.82
2023-04-14T02:04:18.023Z,11.81
2023-04-14T02:06:52.722Z,11.77
2023-04-14T02:09:27.753Z,11.75
2023-04-14T02:12:01.025Z,11.74
2023-04-14T02:14:35.624Z,11.74
2023-04-14T02:17:08.894Z,11.72
2023-04-14T02:19:43.720Z,11.70
2023-04-14T02:22:16.393Z,11.71
2023-04-14T02:24:49.319Z,11.71
2023-04-14T02:27:30.302Z,11.71
2023-04-14T02:30:13.290Z,11.69
2023-04-14T02:32:51.074Z,11.67
2023-04-14T02:35:30.109Z,11.67
2023-04-14T02:38:19.728Z,11.67
2023-04-14T02:40:52.837Z,11.64
2023-04-14T02:43:30.902Z,11.64
2023-04-14T02:46:06.692Z,11.63
2023-04-14T02:48:43.161Z,11.61
2023-04-14T02:51:17.284Z,11.59
2023-04-14T02:53:50.873Z,11.55
2023-04-14T02:56:32.238Z,11.54
2023-04-14T02:59:05.567Z,11.53
2023-04-14T03:01:39.023Z,11.51
2023-04-14T03:04:12.133Z,11.49
2023-04-14T03:06:45.451Z,11.47
2023-04-14T03:09:19.751Z,11.46
2023-04-14T03:11:51.856Z,11.44
2023-04-14T03:14:24.803Z,11.41
2023-04-14T03:16:58.327Z,11.44
2023-04-14T03:19:33.020Z,11.43
2023-04-14T03:22:06.778Z,11.43
2023-04-14T03:24:40.503Z,11.41
2023-04-14T03:27:15.443Z,11.42
2023-04-14T03:29:52.378Z,11.41
2023-04-14T03:32:27.770Z,11.40
2023-04-14T03:35:03.143Z,11.39
2023-04-14T03:37:39.465Z,11.38
2023-04-14T03:40:15.768Z,11.37
2023-04-14T03:42:51.120Z,11.36
2023-04-14T03:45:25.265Z,11.34
2023-04-14T03:48:05.460Z,11.33
2023-04-14T03:50:43.345Z,11.31
2023-04-14T03:53:18.890Z,11.30
2023-04-14T03:55:54.102Z,11.30
2023-04-14T03:58:29.815Z,11.30
2023-04-14T04:01:03.983Z,11.32
2023-04-14T04:03:38.723Z,11.33
2023-04-14T04:06:11.796Z,11.34
2023-04-14T04:08:44.854Z,11.33
2023-04-14T04:11:20.929Z,11.33
2023-04-14T04:13:56.065Z,11.33
2023-04-14T04:16:31.721Z,11.32
2023-04-14T04:19:08.396Z,11.31
2023-04-14T04:21:43.453Z,11.31
2023-04-14T04:24:16.761Z,11.30
2023-04-14T04:26:49.814Z,11.29
2023-04-14T04:29:22.666Z,11.31
2023-04-14T04:31:55.772Z,11.33
2023-04-14T04:34:32.088Z,11.33
2023-04-14T04:37:05.441Z,11.33
2023-04-14T04:39:37.842Z,11.33
2023-04-14T04:42:10.775Z,11.32
2023-04-14T04:44:43.197Z,11.33
2023-04-14T04:47:16.177Z,11.37
2023-04-14T04:49:49.854Z,11.38
2023-04-14T04:52:22.292Z,11.37
2023-04-14T04:54:56.562Z,11.40
2023-04-14T04:57:29.002Z,11.41
2023-04-14T05:00:01.289Z,11.40
2023-04-14T05:02:33.770Z,11.39
2023-04-14T05:05:06.668Z,11.38
2023-04-14T05:07:38.900Z,11.37
2023-04-14T05:10:12.390Z,11.38
2023-04-14T05:12:44.878Z,11.41
2023-04-14T05:15:17.294Z,11.43
2023-04-14T05:17:49.868Z,11.46
2023-04-14T05:20:22.313Z,11.48
2023-04-14T05:22:54.591Z,11.52
2023-04-14T05:25:27.049Z,11.54
2023-04-14T05:27:59.421Z,11.59
2023-04-14T05:30:31.996Z,11.61
2023-04-14T05:33:04.453Z,11.65
2023-04-14T05:35:36.756Z,11.69
2023-04-14T05:38:09.081Z,11.73
2023-04-14T05:40:41.967Z,11.77
2023-04-14T05:43:14.393Z,11.80
2023-04-14T05:45:47.478Z,11.82
2023-04-14T05:48:20.244Z,11.85
2023-04-14T05:50:53.376Z,11.88
2023-04-14T05:53:25.903Z,11.89
2023-04-14T05:55:58.342Z,11.91
2023-04-14T05:58:30.596Z,11.92
2023-04-14T06:01:04.193Z,11.93
2023-04-14T06:03:40.123Z,11.94
2023-04-14T06:06:12.977Z,11.97
2023-04-14T06:08:45.314Z,11.99
2023-04-14T06:11:17.666Z,12.02
2023-04-14T06:13:50.378Z,12.05
2023-04-14T06:16:22.738Z,12.09
2023-04-14T06:18:55.143Z,12.12
2023-04-14T06:21:27.676Z,12.15
2023-04-14T06:23:59.979Z,12.15
2023-04-14T06:26:32.619Z,12.16
2023-04-14T06:29:07.625Z,12.17
2023-04-14T06:31:40.236Z,12.17
2023-04-14T06:34:12.548Z,12.20
2023-04-14T06:36:44.940Z,12.22
2023-04-14T06:39:17.272Z,12.24
2023-04-14T06:41:49.584Z,12.27
2023-04-14T06:44:22.064Z,12.30
2023-04-14T06:46:56.394Z,12.33
2023-04-14T06:49:29.571Z,12.34
2023-04-14T06:52:01.910Z,12.36
2023-04-14T06:54:35.111Z,12.38
2023-04-14T06:57:07.573Z,12.40
2023-04-14T06:59:39.866Z,12.42
2023-04-14T07:02:12.229Z,12.44
2023-04-14T07:04:44.713Z,12.48
2023-04-14T07:07:17.158Z,12.50
2023-04-14T07:09:49.680Z,12.51
2023-04-14T07:12:22.008Z,12.51
2023-04-14T07:14:54.264Z,12.52
2023-04-14T07:17:26.663Z,12.53
2023-04-14T07:19:59.252Z,12.56
2023-04-14T07:22:31.976Z,12.58
2023-04-14T07:25:04.310Z,12.63
2023-04-14T07:27:36.724Z,12.66
2023-04-14T07:30:11.047Z,12.70
2023-04-14T07:32:43.462Z,12.77
2023-04-14T07:35:16.008Z,12.82
2023-04-14T07:37:48.360Z,12.87
2023-04-14T07:40:20.989Z,12.93
2023-04-14T07:42:53.481Z,12.97
2023-04-14T07:45:26.281Z,12.98
2023-04-14T07:47:58.705Z,12.99
2023-04-14T07:50:31.570Z,13.04
2023-04-14T07:53:04.023Z,13.07
2023-04-14T07:55:36.300Z,13.07
2023-04-14T07:58:08.688Z,13.10
2023-04-14T08:00:41.115Z,13.13
2023-04-14T08:03:14.314Z,13.16
2023-04-14T08:05:47.743Z,13.21
2023-04-14T08:08:20.067Z,13.30
2023-04-14T08:10:52.468Z,13.38
2023-04-14T08:13:24.759Z,13.44
2023-04-14T08:15:57.242Z,13.53
2023-04-14T08:18:29.633Z,13.60
2023-04-14T08:21:02.010Z,13.63
2023-04-14T08:23:34.362Z,13.68
2023-04-14T08:26:07.180Z,13.74
2023-04-14T08:28:39.531Z,13.83
2023-04-14T08:31:11.958Z,13.92
2023-04-14T08:33:44.300Z,13.96
2023-04-14T08:36:16.694Z,14.00
2023-04-14T08:38:49.043Z,14.05
2023-04-14T08:41:22.383Z,14.08
2023-04-14T08:43:55.018Z,14.14
2023-04-14T08:46:28.582Z,14.26
2023-04-14T08:49:05.284Z,14.48
2023-04-14T08:51:40.697Z,14.71
2023-04-14T08:54:13.843Z,14.84
2023-04-14T08:56:46.945Z,14.88
2023-04-14T08:59:19.655Z,14.87
2023-04-14T09:01:53.916Z,14.84
2023-04-14T09:04:27.686Z,14.96
2023-04-14T09:07:00.553Z,15.08
2023-04-14T09:09:33.195Z,15.18
2023-04-14T09:12:06.879Z,15.24
2023-04-14T09:14:40.883Z,15.23
2023-04-14T09:17:13.576Z,15.22
2023-04-14T09:20:36.839Z,15.18
2023-04-14T09:22:38.503Z,15.07
2023-04-14T09:25:14.442Z,14.98
2023-04-14T09:27:47.290Z,14.93
2023-04-14T09:30:19.877Z,14.87
2023-04-14T09:32:54.878Z,14.83
2023-04-14T09:35:47.557Z,14.80
2023-04-14T09:38:35.398Z,14.78
2023-04-14T09:41:08.321Z,14.80
2023-04-14T09:43:40.799Z,14.82
2023-04-14T09:46:13.716Z,14.83
2023-04-14T09:48:55.315Z,14.82
2023-04-14T09:51:30.426Z,14.82
2023-04-14T09:54:06.353Z,14.87
2023-04-14T09:56:39.169Z,14.94
2023-04-14T09:59:11.624Z,15.02
2023-04-14T10:01:48.254Z,15.08
2023-04-14T10:04:26.744Z,15.08
2023-04-14T10:07:00.359Z,15.04
2023-04-14T10:09:38.861Z,15.03
2023-04-14T10:12:13.462Z,15.06
2023-04-14T10:14:46.392Z,15.17
2023-04-14T10:17:19.890Z,15.42
2023-04-14T10:19:52.742Z,15.65
2023-04-14T10:22:27.858Z,15.80
2023-04-14T10:25:01.801Z,15.86
2023-04-14T10:27:36.835Z,15.90
2023-04-14T10:30:10.695Z,16.00
2023-04-14T10:32:46.201Z,16.20
2023-04-14T10:35:19.833Z,16.39
2023-04-14T10:37:55.330Z,16.51
2023-04-14T10:40:27.654Z,16.54
2023-04-14T10:43:00.017Z,16.54
2023-04-14T10:45:32.338Z,16.63
2023-04-14T10:48:05.716Z,16.84
2023-04-14T10:50:49.391Z,17.07
2023-04-14T10:53:21.774Z,17.33
2023-04-14T10:55:57.100Z,17.57
2023-04-14T10:58:30.643Z,17.79
2023-04-14T11:01:21.763Z,18.02
2023-04-14T11:03:55.252Z,18.24
2023-04-14T11:06:53.007Z,18.40
2023-04-14T11:09:38.038Z,18.58
2023-04-14T11:12:24.492Z,18.69
2023-04-14T11:15:02.997Z,18.71
2023-04-14T11:17:40.503Z,18.65
2023-04-14T11:20:19.131Z,18.59
2023-04-14T11:22:52.821Z,18.64
2023-04-14T11:25:25.370Z,18.75
2023-04-14T11:28:02.491Z,18.88
2023-04-14T11:30:34.794Z,19.00
2023-04-14T11:33:07.397Z,19.09
2023-04-14T11:35:39.730Z,19.18
2023-04-14T11:38:12.318Z,19.34
2023-04-14T11:40:49.466Z,19.49
2023-04-14T11:43:23.009Z,19.46
2023-04-14T11:45:55.474Z,19.29
2023-04-14T11:48:30.979Z,19.11
2023-04-14T11:51:04.112Z,18.97
2023-04-14T11:53:40.216Z,18.97
2023-04-14T11:56:13.395Z,18.99
2023-04-14T11:58:45.952Z,19.02
2023-04-14T12:01:25.229Z,19.09
2023-04-14T12:03:58.753Z,19.03
2023-04-14T12:06:36.461Z,18.88
2023-04-14T12:09:11.211Z,18.76
2023-04-14T12:11:43.536Z,18.63
2023-04-14T12:14:16.018Z,18.51
2023-04-14T12:16:48.366Z,18.45
2023-04-14T12:19:20.747Z,18.50
2023-04-14T12:21:55.193Z,18.59
2023-04-14T12:24:34.071Z,18.68
2023-04-14T12:27:09.935Z,18.69
2023-04-14T12:29:47.346Z,18.71
2023-04-14T12:32:21.557Z,18.70
2023-04-14T12:34:58.780Z,18.67
2023-04-14T12:37:31.274Z,18.66
2023-04-14T12:40:06.948Z,18.72
2023-04-14T12:42:51.603Z,18.82
2023-04-14T12:45:24.019Z,18.94
2023-04-14T12:47:57.859Z,19.03
2023-04-14T12:50:33.452Z,19.13
2023-04-14T12:53:23.645Z,19.25
2023-04-14T12:56:09.018Z,19.28
2023-04-14T12:58:43.725Z,19.18
2023-04-14T13:01:17.780Z,19.07
2023-04-14T13:03:52.684Z,19.01
2023-04-14T13:06:26.206Z,19.05
2023-04-14T13:08:58.490Z,19.06
2023-04-14T13:11:31.421Z,19.06
2023-04-14T13:14:03.830Z,19.08
2023-04-14T13:16:36.198Z,19.13
2023-04-14T13:19:08.709Z,19.14
2023-04-14T13:21:41.566Z,19.15
2023-04-14T13:24:13.910Z,19.17
2023-04-14T13:26:47.090Z,19.20
2023-04-14T13:29:19.464Z,19.26
2023-04-14T13:31:51.863Z,19.36
2023-04-14T13:34:24.361Z,19.38
2023-04-14T13:36:56.668Z,19.34
2023-04-14T13:39:29.139Z,19.30
2023-04-14T13:42:01.367Z,19.33
2023-04-14T13:44:35.333Z,19.32
2023-04-14T13:47:07.631Z,19.31
2023-04-14T13:49:39.987Z,19.25
2023-04-14T13:52:12.402Z,19.14
2023-04-14T13:54:44.781Z,19.01
2023-04-14T13:57:17.266Z,18.89
2023-04-14T13:59:49.647Z,18.75
2023-04-14T14:02:23.802Z,18.61
2023-04-14T14:04:56.435Z,18.50
2023-04-14T14:07:29.060Z,18.43
2023-04-14T14:10:01.754Z,18.32
2023-04-14T14:12:34.159Z,18.24
2023-04-14T14:15:07.901Z,18.19
2023-04-14T14:17:40.962Z,18.17
2023-04-14T14:20:13.995Z,18.16
2023-04-14T14:22:46.225Z,18.19
2023-04-14T14:25:20.836Z,18.23
2023-04-14T14:27:53.669Z,18.30
2023-04-14T14:30:26.170Z,18.36
2023-04-14T14:32:58.545Z,18.39
2023-04-14T14:35:30.923Z,18.38
2023-04-14T14:38:03.277Z,18.30
2023-04-14T14:40:35.710Z,18.17
2023-04-14T14:43:07.909Z,18.06
2023-04-14T14:45:40.206Z,17.96
2023-04-14T14:48:13.492Z,17.86
2023-04-14T14:50:45.936Z,17.80
2023-04-14T14:53:18.202Z,17.73
2023-04-14T14:55:50.545Z,17.61
2023-04-14T14:58:22.892Z,17.53
2023-04-14T15:00:55.580Z,17.47
2023-04-14T15:03:28.129Z,17.41
2023-04-14T15:06:00.633Z,17.37
2023-04-14T15:08:33.221Z,17.34
2023-04-14T15:11:05.706Z,17.34
2023-04-14T15:13:38.464Z,17.35
2023-04-14T15:16:10.886Z,17.39
2023-04-14T15:18:43.202Z,17.37
2023-04-14T15:21:15.605Z,17.33
2023-04-14T15:23:47.916Z,17.32
2023-04-14T15:26:20.811Z,17.26
2023-04-14T15:28:53.153Z,17.21
2023-04-14T15:31:25.817Z,17.16
2023-04-14T15:34:01.691Z,17.14
2023-04-14T15:36:34.326Z,17.13
2023-04-14T15:39:07.188Z,17.15
2023-04-14T15:41:39.458Z,17.11
2023-04-14T15:44:11.801Z,17.08
2023-04-14T15:46:44.210Z,17.05
2023-04-14T15:49:16.536Z,17.01
2023-04-14T15:51:49.603Z,16.98
2023-04-14T15:54:22.886Z,16.95
2023-04-14T15:56:55.303Z,16.92
2023-04-14T15:59:28.824Z,16.90
2023-04-14T16:02:02.472Z,16.87
2023-04-14T16:04:35.330Z,16.84
2023-04-14T16:07:07.758Z,16.84
2023-04-14T16:09:40.071Z,16.81
2023-04-14T16:12:12.546Z,16.76
2023-04-14T16:14:44.870Z,16.70
2023-04-14T16:17:17.504Z,16.62
2023-04-14T16:19:49.839Z,16.56
2023-04-14T16:22:22.250Z,16.52
2023-04-14T16:24:54.519Z,16.46
2023-04-14T16:27:27.118Z,16.44
2023-04-14T16:29:59.493Z,16.42
2023-04-14T16:32:32.026Z,16.38
2023-04-14T16:35:04.398Z,16.35
2023-04-14T16:37:36.793Z,16.31
2023-04-14T16:40:11.664Z,16.26
2023-04-14T16:42:44.193Z,16.25
2023-04-14T16:45:16.663Z,16.22
2023-04-14T16:47:48.971Z,16.20
2023-04-14T16:50:21.854Z,16.16
2023-04-14T16:52:54.158Z,16.13
2023-04-14T16:55:26.617Z,16.05
2023-04-14T16:57:59.143Z,15.99
2023-04-14T17:00:31.611Z,15.94
2023-04-14T17:03:04.349Z,15.89
2023-04-14T17:05:37.003Z,15.84
2023-04-14T17:08:09.536Z,15.80
2023-04-14T17:10:43.124Z,15.78
2023-04-14T17:13:16.313Z,15.74
2023-04-14T17:15:58.818Z,15.69
2023-04-14T17:18:40.419Z,15.62
2023-04-14T17:21:12.703Z,15.57
2023-04-14T17:23:45.042Z,15.52
2023-04-14T17:26:18.122Z,15.48
2023-04-14T17:28:50.454Z,15.45
2023-04-14T17:31:23.025Z,15.40
2023-04-14T17:33:55.375Z,15.32
2023-04-14T17:36:28.541Z,15.26
2023-04-14T17:39:01.124Z,15.19
2023-04-14T17:41:33.543Z,15.12
2023-04-14T17:44:05.870Z,15.08
2023-04-14T17:46:38.506Z,15.07
2023-04-14T17:49:11.034Z,15.04
2023-04-14T17:51:43.793Z,15.02
2023-04-14T17:54:16.164Z,14.97
2023-04-14T17:56:49.383Z,14.92
2023-04-14T17:59:23.021Z,14.91
2023-04-14T18:01:55.869Z,14.90
2023-04-14T18:04:28.321Z,14.88
2023-04-14T18:07:00.955Z,14.83
2023-04-14T18:09:34.090Z,14.80
2023-04-14T18:12:06.645Z,14.76
2023-04-14T18:14:39.694Z,14.73
2023-04-14T18:17:12.256Z,14.70
2023-04-14T18:19:44.681Z,14.68
2023-04-14T18:22:17.417Z,14.64
2023-04-14T18:24:49.924Z,14.59
2023-04-14T18:29:57.677Z,14.53
2023-04-14T18:32:31.617Z,14.51
2023-04-14T18:35:04.178Z,14.48
2023-04-14T18:37:37.413Z,14.45
2023-04-14T18:40:12.672Z,14.42
2023-04-14T18:42:45.062Z,14.38
2023-04-14T18:45:17.755Z,14.34
2023-04-14T18:47:50.045Z,14.32
2023-04-14T18:50:22.556Z,14.30
2023-04-14T18:52:55.274Z,14.29
2023-04-14T18:55:39.523Z,14.26
2023-04-14T18:58:18.817Z,14.25
2023-04-14T19:00:51.508Z,14.23
2023-04-14T19:03:23.945Z,14.22
2023-04-14T19:05:56.732Z,14.19
2023-04-14T19:08:29.084Z,14.17
2023-04-14T19:11:02.327Z,14.15
2023-04-14T19:13:34.867Z,14.10
2023-04-14T19:16:11.604Z,14.08
2023-04-14T19:18:44.723Z,14.04
2023-04-14T19:21:17.345Z,14.00
2023-04-14T19:23:51.067Z,13.97
2023-04-14T19:26:24.048Z,13.94
2023-04-14T19:28:58.802Z,13.92
2023-04-14T19:31:29.614Z,13.93
2023-04-14T19:34:01.868Z,13.91
2023-04-14T19:36:34.484Z,13.88
2023-04-14T19:39:06.862Z,13.87
2023-04-14T19:41:39.307Z,13.87
2023-04-14T19:44:12.168Z,13.86
2023-04-14T19:46:46.506Z,13.86
2023-04-14T19:49:18.908Z,13.86
2023-04-14T19:51:54.547Z,13.87
2023-04-14T19:54:27.884Z,13.85
2023-04-14T19:57:00.433Z,13.83
2023-04-14T19:59:32.944Z,13.83
2023-04-14T20:02:10.549Z,13.82
2023-04-14T20:04:47.017Z,13.83
2023-04-14T20:07:19.461Z,13.85
2023-04-14T20:09:51.776Z,13.83
2023-04-14T20:12:24.135Z,13.81
2023-04-14T20:14:56.430Z,13.79
2023-04-14T20:17:28.787Z,13.78
2023-04-14T20:20:01.648Z,13.78
2023-04-14T20:22:34.613Z,13.76
2023-04-14T20:25:07.891Z,13.75
2023-04-14T20:27:40.996Z,13.75
2023-04-14T20:30:15.303Z,13.74
2023-04-14T20:32:47.698Z,13.74
2023-04-14T20:35:20.239Z,13.75
2023-04-14T20:37:52.751Z,13.75
2023-04-14T20:40:25.170Z,13.75
2023-04-14T20:42:57.545Z,13.75
2023-04-14T20:45:30.053Z,13.72
2023-04-14T20:48:02.635Z,13.69
2023-04-14T20:50:35.254Z,13.69
2023-04-14T20:53:07.562Z,13.70
2023-04-14T20:55:41.230Z,13.69
2023-04-14T20:58:13.916Z,13.66
2023-04-14T21:00:46.258Z,13.64
2023-04-14T21:03:18.808Z,13.63
2023-04-14T21:05:51.350Z,13.62
2023-04-14T21:08:23.744Z,13.62
2023-04-14T21:11:14.515Z,13.62
2023-04-14T21:15:40.861Z,13.58
2023-04-14T21:16:41.877Z,13.58
2023-04-14T21:19:14.538Z,13.59
2023-04-14T21:21:47.000Z,13.59
2023-04-14T21:24:19.502Z,13.60
2023-04-14T21:26:52.208Z,13.60
2023-04-14T21:29:24.941Z,13.61
2023-04-14T21:31:57.383Z,13.60
2023-04-14T21:34:29.822Z,13.59
2023-04-14T21:37:02.606Z,13.57
2023-04-14T21:39:35.326Z,13.55
2023-04-14T21:42:08.009Z,13.54
2023-04-14T21:44:40.575Z,13.53
2023-04-14T21:47:13.046Z,13.52
2023-04-14T21:49:45.683Z,13.50
2023-04-14T21:52:18.455Z,13.48
2023-04-14T21:54:50.876Z,13.46
2023-04-14T21:57:44.390Z,13.45
2023-04-14T22:00:17.905Z,13.41
2023-04-14T22:02:51.689Z,13.39
2023-04-14T22:05:24.730Z,13.37
2023-04-14T22:07:57.180Z,13.34
2023-04-14T22:10:32.325Z,13.34
2023-04-14T22:13:04.803Z,13.34
2023-04-14T22:15:37.268Z,13.32
2023-04-14T22:18:09.988Z,13.31
2023-04-14T22:20:43.091Z,13.28
2023-04-14T22:23:15.865Z,13.26
2023-04-14T22:25:48.321Z,13.24
2023-04-14T22:28:20.869Z,13.22
2023-04-14T22:30:53.205Z,13.19
2023-04-14T22:33:25.950Z,13.17
2023-04-14T22:36:00.201Z,13.16
2023-04-14T22:38:34.049Z,13.14
2023-04-14T22:41:06.715Z,13.13
2023-04-14T22:43:39.046Z,13.10
2023-04-14T22:46:11.499Z,13.07
2023-04-14T22:48:43.846Z,13.07
2023-04-14T22:51:16.891Z,13.06
2023-04-14T22:53:49.320Z,13.04
2023-04-14T22:56:21.939Z,13.03
2023-04-14T22:58:54.310Z,13.01
2023-04-14T23:01:29.017Z,12.97
2023-04-14T23:03:59.973Z,12.95
2023-04-14T23:06:38.655Z,12.89
2023-04-14T23:09:18.106Z,12.86
2023-04-14T23:11:50.586Z,12.85
2023-04-14T23:14:22.838Z,12.83
2023-04-14T23:16:55.132Z,12.82
2023-04-14T23:19:27.723Z,12.81
2023-04-14T23:21:59.993Z,12.79
2023-04-14T23:24:32.355Z,12.78
2023-04-14T23:27:04.659Z,12.76
2023-04-14T23:29:38.387Z,12.74
2023-04-14T23:32:10.905Z,12.72
2023-04-14T23:34:43.176Z,12.70
2023-04-14T23:37:15.675Z,12.69
2023-04-14T23:39:48.133Z,12.67
2023-04-14T23:42:20.780Z,12.67
2023-04-14T23:44:53.127Z,12.67
2023-04-14T23:47:25.600Z,12.68
2023-04-14T23:49:58.172Z,12.67
2023-04-14T23:52:30.832Z,12.67
2023-04-14T23:55:03.123Z,12.68
2023-04-14T23:57:35.456Z,12.66
